Milan, Georgia
Current Conditions -  °F | °C
As of 4:15 PM on Sunday 23 Nov 2014 (Local Time) from KEZM Reporting Station
Haze Haze  
Wind Chill: 68°   Ceiling: 500
Heat Index: 68°   Visibility: 3mi
Dew Point: 68°   Wind: 5mph
Humidity: 100%   Direction: 150°SSE
Pressure: 29.8"   Gusts: NA
Location:  32.02°N, 83.06°W
Report Text: KEZM 232115Z AUTO 15004KT 3SM BR BKN005 OVC009 20/20 A2980 RMK AO2 LTG DSNT ALQS T02020202
Loading
Personal Weather Stations






























Interactive Weather Map New forecast layout! Learn more

10-Day Weather Forecast

Advertisements
Track Severe Weather on mobile